logo
Rechercher aéroport 
image banner adimage banner adimage banner ad
image banner ad

ED1731 - Herzberg Klinikum

Situé à Herzberg, Germany

ICAO - , IATA -

Données fournies par Airmate  

Information générale

Coordonnées: N51°41'10" E13°12'25"
Élévation : 267 feet MSL.
 
Voir autres Aéroports à Brandenburg

Données opérationnelles

Special qualification required
Heure actuelle UTC:
Heure actuelle locale:
Météo à : ETSH - Holzdorf ( 9 km )
METAR: ETSH 232020Z 28001KT 9999 MIFG FEW002 BKN110 BKN220 17/16 Q1015 BLU BLU TEMPO GRN
TAF: TAF ETSH 231917Z 2320/2405 20008KT 9999 NSW FEW015 SCT040 BKN080 TEMPO 2320/2405 26015G25KT 4000 SHRA SCT010 BKN020CB PROB30 2320/2405 27015G30KT 2000 TSRA SCT005 BKN010CB
Voir NOTAMs / SUP AIP / TFR affectant cet aéroport [VIEW]
Fréquences de communication: [VIEW]

Pistes:

Coordonnées de l'aéroport

Adresse: Herzberg Germany

Vue satellite de ED1731